sensor_id;sensor_type;location;lat;lon;timestamp;P1;durP1;ratioP1;P2;durP2;ratioP2
76477;SDS011;65309;49.790;18.972;2023-04-25T00:00:34;15.02;;;9.88;;
76477;SDS011;65309;49.790;18.972;2023-04-25T00:05:54;12.98;;;7.35;;
76477;SDS011;65309;49.790;18.972;2023-04-25T00:11:00;6.60;;;4.00;;
76477;SDS011;65309;49.790;18.972;2023-04-25T00:16:02;5.72;;;2.83;;
76477;SDS011;65309;49.790;18.972;2023-04-25T00:21:06;4.78;;;3.28;;
76477;SDS011;65309;49.790;18.972;2023-04-25T00:26:09;4.40;;;3.47;;
76477;SDS011;65309;49.790;18.972;2023-04-25T00:31:11;5.85;;;2.72;;
76477;SDS011;65309;49.790;18.972;2023-04-25T00:36:13;5.65;;;3.53;;
76477;SDS011;65309;49.790;18.972;2023-04-25T00:41:17;2.90;;;2.40;;
76477;SDS011;65309;49.790;18.972;2023-04-25T00:46:20;2.72;;;2.08;;
76477;SDS011;65309;49.790;18.972;2023-04-25T00:51:22;3.67;;;3.17;;
76477;SDS011;65309;49.790;18.972;2023-04-25T00:56:28;5.00;;;4.03;;
76477;SDS011;65309;49.790;18.972;2023-04-25T01:01:30;3.88;;;3.30;;
76477;SDS011;65309;49.790;18.972;2023-04-25T01:06:32;4.32;;;3.17;;
76477;SDS011;65309;49.790;18.972;2023-04-25T01:11:36;4.93;;;3.65;;
76477;SDS011;65309;49.790;18.972;2023-04-25T01:16:38;4.25;;;3.40;;
76477;SDS011;65309;49.790;18.972;2023-04-25T01:21:41;5.43;;;3.55;;
76477;SDS011;65309;49.790;18.972;2023-04-25T01:26:43;7.53;;;4.25;;
76477;SDS011;65309;49.790;18.972;2023-04-25T01:31:51;9.55;;;4.82;;
76477;SDS011;65309;49.790;18.972;2023-04-25T01:36:55;4.60;;;2.83;;
76477;SDS011;65309;49.790;18.972;2023-04-25T01:41:58;6.47;;;4.32;;
76477;SDS011;65309;49.790;18.972;2023-04-25T01:47:01;3.90;;;2.92;;
76477;SDS011;65309;49.790;18.972;2023-04-25T01:52:04;3.85;;;2.60;;
76477;SDS011;65309;49.790;18.972;2023-04-25T01:57:06;7.07;;;5.35;;
76477;SDS011;65309;49.790;18.972;2023-04-25T02:02:08;7.07;;;4.25;;
76477;SDS011;65309;49.790;18.972;2023-04-25T02:07:11;7.35;;;4.93;;
76477;SDS011;65309;49.790;18.972;2023-04-25T02:12:13;6.95;;;4.97;;
76477;SDS011;65309;49.790;18.972;2023-04-25T02:17:15;7.15;;;4.43;;
76477;SDS011;65309;49.790;18.972;2023-04-25T02:22:19;4.35;;;3.70;;
76477;SDS011;65309;49.790;18.972;2023-04-25T02:27:21;6.38;;;3.65;;
76477;SDS011;65309;49.790;18.972;2023-04-25T02:32:23;3.55;;;2.85;;
76477;SDS011;65309;49.790;18.972;2023-04-25T02:37:27;5.63;;;3.28;;
76477;SDS011;65309;49.790;18.972;2023-04-25T02:47:30;4.53;;;3.70;;
76477;SDS011;65309;49.790;18.972;2023-04-25T02:52:34;5.18;;;4.30;;
76477;SDS011;65309;49.790;18.972;2023-04-25T02:57:36;6.15;;;4.22;;
76477;SDS011;65309;49.790;18.972;2023-04-25T03:02:38;6.82;;;4.38;;
76477;SDS011;65309;49.790;18.972;2023-04-25T03:07:42;6.78;;;3.85;;
76477;SDS011;65309;49.790;18.972;2023-04-25T03:12:45;3.85;;;2.95;;
76477;SDS011;65309;49.790;18.972;2023-04-25T03:17:47;8.20;;;3.88;;
76477;SDS011;65309;49.790;18.972;2023-04-25T03:22:51;6.45;;;3.50;;
76477;SDS011;65309;49.790;18.972;2023-04-25T03:27:53;4.55;;;3.08;;
76477;SDS011;65309;49.790;18.972;2023-04-25T03:32:55;6.25;;;4.38;;
76477;SDS011;65309;49.790;18.972;2023-04-25T03:37:58;8.02;;;5.47;;
76477;SDS011;65309;49.790;18.972;2023-04-25T03:43:00;6.68;;;4.38;;
76477;SDS011;65309;49.790;18.972;2023-04-25T03:48:03;7.07;;;3.40;;
76477;SDS011;65309;49.790;18.972;2023-04-25T03:53:07;6.45;;;4.65;;
76477;SDS011;65309;49.790;18.972;2023-04-25T04:03:11;4.88;;;4.20;;
76477;SDS011;65309;49.790;18.972;2023-04-25T04:08:14;7.28;;;4.47;;
76477;SDS011;65309;49.790;18.972;2023-04-25T04:18:18;5.95;;;3.70;;
76477;SDS011;65309;49.790;18.972;2023-04-25T04:23:22;7.20;;;4.28;;
76477;SDS011;65309;49.790;18.972;2023-04-25T04:28:24;5.55;;;4.10;;
76477;SDS011;65309;49.790;18.972;2023-04-25T04:33:28;9.57;;;5.50;;
76477;SDS011;65309;49.790;18.972;2023-04-25T04:38:32;9.15;;;5.90;;
76477;SDS011;65309;49.790;18.972;2023-04-25T04:43:34;5.05;;;3.78;;
76477;SDS011;65309;49.790;18.972;2023-04-25T04:48:36;6.43;;;4.28;;
76477;SDS011;65309;49.790;18.972;2023-04-25T04:53:40;5.75;;;4.43;;
76477;SDS011;65309;49.790;18.972;2023-04-25T05:03:44;5.70;;;3.28;;
76477;SDS011;65309;49.790;18.972;2023-04-25T05:08:47;5.18;;;4.20;;
76477;SDS011;65309;49.790;18.972;2023-04-25T05:13:51;5.32;;;2.67;;
76477;SDS011;65309;49.790;18.972;2023-04-25T05:18:54;6.00;;;5.32;;
76477;SDS011;65309;49.790;18.972;2023-04-25T05:23:57;5.57;;;3.83;;
76477;SDS011;65309;49.790;18.972;2023-04-25T05:28:59;6.13;;;4.40;;
76477;SDS011;65309;49.790;18.972;2023-04-25T05:34:02;6.85;;;4.88;;
76477;SDS011;65309;49.790;18.972;2023-04-25T05:39:05;12.20;;;4.88;;
76477;SDS011;65309;49.790;18.972;2023-04-25T05:44:08;3.70;;;2.83;;
76477;SDS011;65309;49.790;18.972;2023-04-25T05:49:10;5.72;;;3.42;;
76477;SDS011;65309;49.790;18.972;2023-04-25T05:54:13;5.55;;;4.25;;
76477;SDS011;65309;49.790;18.972;2023-04-25T05:59:15;5.03;;;3.70;;
76477;SDS011;65309;49.790;18.972;2023-04-25T06:04:17;5.13;;;4.00;;
76477;SDS011;65309;49.790;18.972;2023-04-25T06:09:21;5.50;;;3.92;;
76477;SDS011;65309;49.790;18.972;2023-04-25T06:14:23;7.50;;;4.88;;
76477;SDS011;65309;49.790;18.972;2023-04-25T06:19:25;8.52;;;4.72;;
76477;SDS011;65309;49.790;18.972;2023-04-25T06:24:28;7.65;;;3.88;;
76477;SDS011;65309;49.790;18.972;2023-04-25T06:29:30;5.88;;;4.85;;
76477;SDS011;65309;49.790;18.972;2023-04-25T06:34:32;9.23;;;5.90;;
76477;SDS011;65309;49.790;18.972;2023-04-25T06:39:36;7.50;;;5.20;;
76477;SDS011;65309;49.790;18.972;2023-04-25T06:44:41;10.18;;;6.15;;
76477;SDS011;65309;49.790;18.972;2023-04-25T06:49:43;5.32;;;3.35;;
76477;SDS011;65309;49.790;18.972;2023-04-25T06:54:47;5.38;;;4.07;;
76477;SDS011;65309;49.790;18.972;2023-04-25T06:59:49;7.85;;;5.50;;
76477;SDS011;65309;49.790;18.972;2023-04-25T07:04:51;10.55;;;4.88;;
76477;SDS011;65309;49.790;18.972;2023-04-25T07:09:55;8.73;;;5.38;;
76477;SDS011;65309;49.790;18.972;2023-04-25T07:14:57;11.43;;;5.40;;
76477;SDS011;65309;49.790;18.972;2023-04-25T07:19:59;5.53;;;4.20;;
76477;SDS011;65309;49.790;18.972;2023-04-25T07:25:02;6.50;;;4.40;;
76477;SDS011;65309;49.790;18.972;2023-04-25T07:30:06;9.90;;;4.80;;
76477;SDS011;65309;49.790;18.972;2023-04-25T07:35:09;7.40;;;5.07;;
76477;SDS011;65309;49.790;18.972;2023-04-25T07:40:13;8.30;;;4.97;;
76477;SDS011;65309;49.790;18.972;2023-04-25T07:45:17;7.25;;;4.63;;
76477;SDS011;65309;49.790;18.972;2023-04-25T07:50:19;6.22;;;4.68;;
76477;SDS011;65309;49.790;18.972;2023-04-25T07:55:22;6.13;;;4.22;;
76477;SDS011;65309;49.790;18.972;2023-04-25T08:00:24;6.55;;;4.22;;
76477;SDS011;65309;49.790;18.972;2023-04-25T08:05:27;6.82;;;4.78;;
76477;SDS011;65309;49.790;18.972;2023-04-25T08:10:30;5.03;;;3.25;;
76477;SDS011;65309;49.790;18.972;2023-04-25T08:15:32;6.63;;;4.68;;
76477;SDS011;65309;49.790;18.972;2023-04-25T08:20:34;8.40;;;5.07;;
76477;SDS011;65309;49.790;18.972;2023-04-25T08:25:38;6.15;;;4.95;;
76477;SDS011;65309;49.790;18.972;2023-04-25T08:30:40;7.32;;;5.10;;
76477;SDS011;65309;49.790;18.972;2023-04-25T08:35:44;7.35;;;5.07;;
76477;SDS011;65309;49.790;18.972;2023-04-25T08:40:49;7.40;;;4.53;;
76477;SDS011;65309;49.790;18.972;2023-04-25T08:45:53;5.95;;;4.43;;
76477;SDS011;65309;49.790;18.972;2023-04-25T08:50:56;4.93;;;4.03;;
76477;SDS011;65309;49.790;18.972;2023-04-25T08:56:01;7.95;;;5.78;;
76477;SDS011;65309;49.790;18.972;2023-04-25T09:01:04;9.82;;;5.85;;
76477;SDS011;65309;49.790;18.972;2023-04-25T09:06:06;4.90;;;3.55;;
76477;SDS011;65309;49.790;18.972;2023-04-25T09:11:11;6.03;;;4.05;;
76477;SDS011;65309;49.790;18.972;2023-04-25T09:16:14;6.47;;;4.45;;
76477;SDS011;65309;49.790;18.972;2023-04-25T09:21:21;6.40;;;4.63;;
76477;SDS011;65309;49.790;18.972;2023-04-25T09:26:25;4.85;;;3.50;;
76477;SDS011;65309;49.790;18.972;2023-04-25T09:31:27;7.85;;;4.70;;
76477;SDS011;65309;49.790;18.972;2023-04-25T09:36:30;8.00;;;4.68;;
76477;SDS011;65309;49.790;18.972;2023-04-25T09:41:33;6.18;;;4.88;;
76477;SDS011;65309;49.790;18.972;2023-04-25T09:46:39;6.60;;;4.20;;
76477;SDS011;65309;49.790;18.972;2023-04-25T09:51:41;5.10;;;4.32;;
76477;SDS011;65309;49.790;18.972;2023-04-25T09:56:44;5.22;;;3.55;;
76477;SDS011;65309;49.790;18.972;2023-04-25T10:01:49;6.10;;;3.50;;
76477;SDS011;65309;49.790;18.972;2023-04-25T10:11:56;5.75;;;3.92;;
76477;SDS011;65309;49.790;18.972;2023-04-25T10:16:59;3.60;;;3.03;;
76477;SDS011;65309;49.790;18.972;2023-04-25T10:22:04;6.65;;;3.78;;
76477;SDS011;65309;49.790;18.972;2023-04-25T10:27:10;5.40;;;3.95;;
76477;SDS011;65309;49.790;18.972;2023-04-25T10:32:13;4.32;;;3.47;;
76477;SDS011;65309;49.790;18.972;2023-04-25T10:37:15;4.90;;;3.03;;
76477;SDS011;65309;49.790;18.972;2023-04-25T10:42:18;4.03;;;3.63;;
76477;SDS011;65309;49.790;18.972;2023-04-25T10:47:20;3.70;;;2.88;;
76477;SDS011;65309;49.790;18.972;2023-04-25T10:52:38;7.70;;;4.20;;
76477;SDS011;65309;49.790;18.972;2023-04-25T10:57:44;7.20;;;5.15;;
76477;SDS011;65309;49.790;18.972;2023-04-25T11:02:48;4.82;;;3.67;;
76477;SDS011;65309;49.790;18.972;2023-04-25T11:07:54;4.50;;;3.25;;
76477;SDS011;65309;49.790;18.972;2023-04-25T11:13:04;6.82;;;3.45;;
76477;SDS011;65309;49.790;18.972;2023-04-25T11:18:06;3.88;;;2.60;;
76477;SDS011;65309;49.790;18.972;2023-04-25T11:23:11;7.10;;;4.15;;
76477;SDS011;65309;49.790;18.972;2023-04-25T11:28:20;6.57;;;3.30;;
76477;SDS011;65309;49.790;18.972;2023-04-25T11:33:23;6.82;;;4.88;;
76477;SDS011;65309;49.790;18.972;2023-04-25T11:38:27;6.40;;;3.50;;
76477;SDS011;65309;49.790;18.972;2023-04-25T11:43:31;7.40;;;5.28;;
76477;SDS011;65309;49.790;18.972;2023-04-25T11:48:36;4.57;;;3.50;;
76477;SDS011;65309;49.790;18.972;2023-04-25T11:53:40;5.97;;;4.05;;
76477;SDS011;65309;49.790;18.972;2023-04-25T11:59:00;6.47;;;3.97;;
76477;SDS011;65309;49.790;18.972;2023-04-25T12:04:10;6.78;;;3.55;;
76477;SDS011;65309;49.790;18.972;2023-04-25T12:09:13;5.10;;;2.95;;
76477;SDS011;65309;49.790;18.972;2023-04-25T12:14:22;10.38;;;5.00;;
76477;SDS011;65309;49.790;18.972;2023-04-25T12:19:31;4.13;;;2.85;;
76477;SDS011;65309;49.790;18.972;2023-04-25T12:24:35;12.10;;;6.28;;
76477;SDS011;65309;49.790;18.972;2023-04-25T12:29:49;5.05;;;3.50;;
76477;SDS011;65309;49.790;18.972;2023-04-25T12:34:53;6.15;;;3.60;;
76477;SDS011;65309;49.790;18.972;2023-04-25T12:39:55;8.10;;;4.88;;
76477;SDS011;65309;49.790;18.972;2023-04-25T12:44:58;5.15;;;3.75;;
76477;SDS011;65309;49.790;18.972;2023-04-25T12:50:00;8.65;;;4.47;;
76477;SDS011;65309;49.790;18.972;2023-04-25T12:55:02;4.05;;;3.42;;
76477;SDS011;65309;49.790;18.972;2023-04-25T13:00:07;8.88;;;4.82;;
76477;SDS011;65309;49.790;18.972;2023-04-25T13:05:11;5.43;;;3.50;;
76477;SDS011;65309;49.790;18.972;2023-04-25T13:10:14;5.55;;;4.13;;
76477;SDS011;65309;49.790;18.972;2023-04-25T13:15:17;2.78;;;2.45;;
76477;SDS011;65309;49.790;18.972;2023-04-25T13:20:20;5.03;;;3.20;;
76477;SDS011;65309;49.790;18.972;2023-04-25T13:25:23;4.85;;;2.53;;
76477;SDS011;65309;49.790;18.972;2023-04-25T13:30:27;3.70;;;2.85;;
76477;SDS011;65309;49.790;18.972;2023-04-25T13:35:30;4.32;;;2.72;;
76477;SDS011;65309;49.790;18.972;2023-04-25T13:40:32;3.20;;;2.90;;
76477;SDS011;65309;49.790;18.972;2023-04-25T13:45:35;1.88;;;1.70;;
76477;SDS011;65309;49.790;18.972;2023-04-25T13:50:38;3.60;;;2.90;;
76477;SDS011;65309;49.790;18.972;2023-04-25T13:55:40;7.18;;;3.53;;
76477;SDS011;65309;49.790;18.972;2023-04-25T14:00:43;6.38;;;3.03;;
76477;SDS011;65309;49.790;18.972;2023-04-25T14:05:47;4.50;;;2.90;;
76477;SDS011;65309;49.790;18.972;2023-04-25T14:10:49;3.90;;;2.70;;
76477;SDS011;65309;49.790;18.972;2023-04-25T14:15:53;6.22;;;3.00;;
76477;SDS011;65309;49.790;18.972;2023-04-25T14:20:55;6.45;;;3.30;;
76477;SDS011;65309;49.790;18.972;2023-04-25T14:25:57;8.30;;;4.30;;
76477;SDS011;65309;49.790;18.972;2023-04-25T14:31:00;4.93;;;2.70;;
76477;SDS011;65309;49.790;18.972;2023-04-25T14:36:02;5.13;;;3.33;;
76477;SDS011;65309;49.790;18.972;2023-04-25T14:41:05;6.13;;;2.65;;
76477;SDS011;65309;49.790;18.972;2023-04-25T14:46:08;6.53;;;4.10;;
76477;SDS011;65309;49.790;18.972;2023-04-25T14:51:10;5.47;;;2.97;;
76477;SDS011;65309;49.790;18.972;2023-04-25T14:56:13;8.27;;;3.60;;
76477;SDS011;65309;49.790;18.972;2023-04-25T15:01:16;3.25;;;2.78;;
76477;SDS011;65309;49.790;18.972;2023-04-25T15:06:18;5.45;;;3.17;;
76477;SDS011;65309;49.790;18.972;2023-04-25T15:11:20;3.90;;;2.80;;
76477;SDS011;65309;49.790;18.972;2023-04-25T15:16:25;6.55;;;3.88;;
76477;SDS011;65309;49.790;18.972;2023-04-25T15:21:27;7.30;;;3.90;;
76477;SDS011;65309;49.790;18.972;2023-04-25T15:26:29;3.50;;;2.83;;
76477;SDS011;65309;49.790;18.972;2023-04-25T15:31:35;5.78;;;4.03;;
76477;SDS011;65309;49.790;18.972;2023-04-25T15:37:03;5.40;;;2.90;;
76477;SDS011;65309;49.790;18.972;2023-04-25T15:42:05;3.38;;;2.78;;
76477;SDS011;65309;49.790;18.972;2023-04-25T15:47:08;5.75;;;3.13;;
76477;SDS011;65309;49.790;18.972;2023-04-25T15:52:10;5.07;;;3.40;;
76477;SDS011;65309;49.790;18.972;2023-04-25T15:57:12;5.30;;;3.35;;
76477;SDS011;65309;49.790;18.972;2023-04-25T16:02:16;5.72;;;3.67;;
76477;SDS011;65309;49.790;18.972;2023-04-25T16:07:18;6.22;;;4.25;;
76477;SDS011;65309;49.790;18.972;2023-04-25T16:12:20;7.47;;;5.07;;
76477;SDS011;65309;49.790;18.972;2023-04-25T16:17:24;5.90;;;3.85;;
76477;SDS011;65309;49.790;18.972;2023-04-25T16:22:26;4.72;;;3.83;;
76477;SDS011;65309;49.790;18.972;2023-04-25T16:27:28;7.93;;;5.05;;
76477;SDS011;65309;49.790;18.972;2023-04-25T16:32:31;6.57;;;3.97;;
76477;SDS011;65309;49.790;18.972;2023-04-25T16:37:33;8.10;;;5.35;;
76477;SDS011;65309;49.790;18.972;2023-04-25T16:42:36;8.30;;;5.15;;
76477;SDS011;65309;49.790;18.972;2023-04-25T16:47:39;5.93;;;4.45;;
76477;SDS011;65309;49.790;18.972;2023-04-25T16:52:41;7.63;;;4.82;;
76477;SDS011;65309;49.790;18.972;2023-04-25T16:57:45;7.45;;;4.82;;
76477;SDS011;65309;49.790;18.972;2023-04-25T17:02:50;13.82;;;5.68;;
76477;SDS011;65309;49.790;18.972;2023-04-25T17:07:53;9.98;;;7.30;;
76477;SDS011;65309;49.790;18.972;2023-04-25T17:12:55;8.73;;;6.63;;
76477;SDS011;65309;49.790;18.972;2023-04-25T17:17:59;14.38;;;5.95;;
76477;SDS011;65309;49.790;18.972;2023-04-25T17:23:01;10.95;;;7.45;;
76477;SDS011;65309;49.790;18.972;2023-04-25T17:28:03;10.40;;;7.20;;
76477;SDS011;65309;49.790;18.972;2023-04-25T17:33:07;15.38;;;8.98;;
76477;SDS011;65309;49.790;18.972;2023-04-25T17:38:10;16.08;;;8.82;;
76477;SDS011;65309;49.790;18.972;2023-04-25T17:43:12;8.20;;;6.43;;
76477;SDS011;65309;49.790;18.972;2023-04-25T17:48:15;9.52;;;7.38;;
76477;SDS011;65309;49.790;18.972;2023-04-25T17:53:17;12.10;;;7.35;;
76477;SDS011;65309;49.790;18.972;2023-04-25T17:58:19;9.85;;;5.88;;
76477;SDS011;65309;49.790;18.972;2023-04-25T18:03:23;7.80;;;6.03;;
76477;SDS011;65309;49.790;18.972;2023-04-25T18:08:25;11.55;;;6.45;;
76477;SDS011;65309;49.790;18.972;2023-04-25T18:13:27;7.93;;;6.63;;
76477;SDS011;65309;49.790;18.972;2023-04-25T18:18:32;17.23;;;7.22;;
76477;SDS011;65309;49.790;18.972;2023-04-25T18:23:36;6.65;;;5.25;;
76477;SDS011;65309;49.790;18.972;2023-04-25T18:28:39;11.68;;;7.50;;
76477;SDS011;65309;49.790;18.972;2023-04-25T18:33:42;13.40;;;7.55;;
76477;SDS011;65309;49.790;18.972;2023-04-25T18:38:44;10.82;;;7.00;;
76477;SDS011;65309;49.790;18.972;2023-04-25T18:43:51;11.98;;;8.48;;
76477;SDS011;65309;49.790;18.972;2023-04-25T18:48:55;15.75;;;9.07;;
76477;SDS011;65309;49.790;18.972;2023-04-25T18:53:58;15.48;;;8.02;;
76477;SDS011;65309;49.790;18.972;2023-04-25T18:59:00;16.48;;;9.88;;
76477;SDS011;65309;49.790;18.972;2023-04-25T19:04:03;25.15;;;11.13;;
76477;SDS011;65309;49.790;18.972;2023-04-25T19:09:07;17.30;;;9.88;;
76477;SDS011;65309;49.790;18.972;2023-04-25T19:14:11;15.18;;;9.27;;
76477;SDS011;65309;49.790;18.972;2023-04-25T19:19:15;14.13;;;8.75;;
76477;SDS011;65309;49.790;18.972;2023-04-25T19:24:17;17.00;;;9.20;;
76477;SDS011;65309;49.790;18.972;2023-04-25T19:29:19;48.33;;;21.75;;
76477;SDS011;65309;49.790;18.972;2023-04-25T19:34:23;21.88;;;10.38;;
76477;SDS011;65309;49.790;18.972;2023-04-25T19:39:26;15.75;;;8.52;;
76477;SDS011;65309;49.790;18.972;2023-04-25T19:44:28;18.23;;;10.68;;
76477;SDS011;65309;49.790;18.972;2023-04-25T19:49:31;15.70;;;10.13;;
76477;SDS011;65309;49.790;18.972;2023-04-25T19:54:33;12.65;;;8.55;;
76477;SDS011;65309;49.790;18.972;2023-04-25T19:59:35;14.73;;;8.57;;
76477;SDS011;65309;49.790;18.972;2023-04-25T20:04:38;26.85;;;9.52;;
76477;SDS011;65309;49.790;18.972;2023-04-25T20:09:40;11.00;;;4.10;;
76477;SDS011;65309;49.790;18.972;2023-04-25T20:14:42;11.38;;;6.20;;
76477;SDS011;65309;49.790;18.972;2023-04-25T20:19:47;2.78;;;1.77;;
76477;SDS011;65309;49.790;18.972;2023-04-25T20:24:49;10.95;;;3.30;;
76477;SDS011;65309;49.790;18.972;2023-04-25T20:29:51;16.00;;;4.95;;
76477;SDS011;65309;49.790;18.972;2023-04-25T20:34:54;4.57;;;2.85;;
76477;SDS011;65309;49.790;18.972;2023-04-25T20:39:57;6.07;;;3.22;;
76477;SDS011;65309;49.790;18.972;2023-04-25T20:44:59;8.48;;;3.13;;
76477;SDS011;65309;49.790;18.972;2023-04-25T20:50:03;2.75;;;2.10;;
76477;SDS011;65309;49.790;18.972;2023-04-25T20:55:07;3.85;;;2.35;;
76477;SDS011;65309;49.790;18.972;2023-04-25T21:00:11;4.03;;;2.63;;
76477;SDS011;65309;49.790;18.972;2023-04-25T21:05:23;3.88;;;3.05;;
76477;SDS011;65309;49.790;18.972;2023-04-25T21:10:25;5.18;;;3.05;;
76477;SDS011;65309;49.790;18.972;2023-04-25T21:15:27;2.92;;;2.35;;
76477;SDS011;65309;49.790;18.972;2023-04-25T21:20:30;5.97;;;3.63;;
76477;SDS011;65309;49.790;18.972;2023-04-25T21:25:33;4.15;;;2.58;;
76477;SDS011;65309;49.790;18.972;2023-04-25T21:30:35;3.92;;;2.65;;
76477;SDS011;65309;49.790;18.972;2023-04-25T21:35:38;5.13;;;2.85;;
76477;SDS011;65309;49.790;18.972;2023-04-25T21:40:40;9.18;;;4.95;;
76477;SDS011;65309;49.790;18.972;2023-04-25T21:45:42;6.07;;;4.78;;
76477;SDS011;65309;49.790;18.972;2023-04-25T21:51:06;4.03;;;2.10;;
76477;SDS011;65309;49.790;18.972;2023-04-25T21:56:08;4.40;;;3.17;;
76477;SDS011;65309;49.790;18.972;2023-04-25T22:01:10;4.05;;;2.78;;
76477;SDS011;65309;49.790;18.972;2023-04-25T22:06:13;8.63;;;4.47;;
76477;SDS011;65309;49.790;18.972;2023-04-25T22:16:17;3.33;;;2.72;;
76477;SDS011;65309;49.790;18.972;2023-04-25T22:21:21;8.50;;;3.42;;
76477;SDS011;65309;49.790;18.972;2023-04-25T22:26:24;5.70;;;4.10;;
76477;SDS011;65309;49.790;18.972;2023-04-25T22:31:26;8.82;;;6.28;;
76477;SDS011;65309;49.790;18.972;2023-04-25T22:36:30;7.15;;;3.75;;
76477;SDS011;65309;49.790;18.972;2023-04-25T22:41:33;6.63;;;4.93;;
76477;SDS011;65309;49.790;18.972;2023-04-25T22:46:35;7.93;;;5.20;;
76477;SDS011;65309;49.790;18.972;2023-04-25T22:51:39;3.00;;;2.17;;
76477;SDS011;65309;49.790;18.972;2023-04-25T22:56:42;8.68;;;2.45;;
76477;SDS011;65309;49.790;18.972;2023-04-25T23:01:44;4.07;;;2.22;;
76477;SDS011;65309;49.790;18.972;2023-04-25T23:06:47;5.18;;;3.00;;
76477;SDS011;65309;49.790;18.972;2023-04-25T23:11:49;3.33;;;3.03;;
76477;SDS011;65309;49.790;18.972;2023-04-25T23:16:53;4.60;;;3.30;;
76477;SDS011;65309;49.790;18.972;2023-04-25T23:21:57;21.30;;;5.55;;
76477;SDS011;65309;49.790;18.972;2023-04-25T23:27:00;7.85;;;2.60;;
76477;SDS011;65309;49.790;18.972;2023-04-25T23:32:02;8.50;;;4.43;;
76477;SDS011;65309;49.790;18.972;2023-04-25T23:37:06;5.10;;;4.10;;
76477;SDS011;65309;49.790;18.972;2023-04-25T23:42:08;5.78;;;3.63;;
76477;SDS011;65309;49.790;18.972;2023-04-25T23:47:10;6.65;;;2.90;;
76477;SDS011;65309;49.790;18.972;2023-04-25T23:52:15;5.43;;;3.67;;
